sensor_id;sensor_type;location;lat;lon;timestamp;P1;durP1;ratioP1;P2;durP2;ratioP2
78453;SDS011;67750;55.832;49.124;2023-06-24T00:00:32;30.80;;;17.98;;
78453;SDS011;67750;55.832;49.124;2023-06-24T00:03:04;29.18;;;18.20;;
78453;SDS011;67750;55.832;49.124;2023-06-24T00:05:34;28.98;;;17.82;;
78453;SDS011;67750;55.832;49.124;2023-06-24T00:08:05;31.02;;;18.05;;
78453;SDS011;67750;55.832;49.124;2023-06-24T00:10:35;31.02;;;17.90;;
78453;SDS011;67750;55.832;49.124;2023-06-24T00:13:05;26.93;;;17.52;;
78453;SDS011;67750;55.832;49.124;2023-06-24T00:15:34;30.40;;;17.55;;
78453;SDS011;67750;55.832;49.124;2023-06-24T00:18:06;27.60;;;16.85;;
78453;SDS011;67750;55.832;49.124;2023-06-24T00:20:35;30.25;;;18.32;;
78453;SDS011;67750;55.832;49.124;2023-06-24T00:23:05;28.65;;;17.30;;
78453;SDS011;67750;55.832;49.124;2023-06-24T00:25:35;29.50;;;17.65;;
78453;SDS011;67750;55.832;49.124;2023-06-24T00:28:04;30.80;;;17.30;;
78453;SDS011;67750;55.832;49.124;2023-06-24T00:30:34;26.35;;;16.97;;
78453;SDS011;67750;55.832;49.124;2023-06-24T00:33:04;32.15;;;18.65;;
78453;SDS011;67750;55.832;49.124;2023-06-24T00:38:04;26.85;;;16.50;;
78453;SDS011;67750;55.832;49.124;2023-06-24T00:40:34;27.22;;;16.73;;
78453;SDS011;67750;55.832;49.124;2023-06-24T00:43:03;30.43;;;17.52;;
78453;SDS011;67750;55.832;49.124;2023-06-24T00:48:03;28.60;;;16.35;;
78453;SDS011;67750;55.832;49.124;2023-06-24T00:50:33;28.27;;;17.02;;
78453;SDS011;67750;55.832;49.124;2023-06-24T00:53:04;30.12;;;17.37;;
78453;SDS011;67750;55.832;49.124;2023-06-24T00:55:33;28.98;;;16.90;;
78453;SDS011;67750;55.832;49.124;2023-06-24T00:58:03;28.80;;;16.42;;
78453;SDS011;67750;55.832;49.124;2023-06-24T01:00:33;33.05;;;17.48;;
78453;SDS011;67750;55.832;49.124;2023-06-24T01:03:03;27.35;;;16.25;;
78453;SDS011;67750;55.832;49.124;2023-06-24T01:05:33;30.05;;;16.55;;
78453;SDS011;67750;55.832;49.124;2023-06-24T01:08:03;32.93;;;16.95;;
78453;SDS011;67750;55.832;49.124;2023-06-24T01:10:32;28.55;;;17.23;;
78453;SDS011;67750;55.832;49.124;2023-06-24T01:13:02;29.40;;;17.10;;
78453;SDS011;67750;55.832;49.124;2023-06-24T01:15:31;33.63;;;17.77;;
78453;SDS011;67750;55.832;49.124;2023-06-24T01:34:41;26.42;;;15.38;;
78453;SDS011;67750;55.832;49.124;2023-06-24T01:37:12;26.97;;;15.90;;
78453;SDS011;67750;55.832;49.124;2023-06-24T01:42:10;29.70;;;15.50;;
78453;SDS011;67750;55.832;49.124;2023-06-24T01:47:09;24.63;;;15.08;;
78453;SDS011;67750;55.832;49.124;2023-06-24T01:49:41;27.13;;;15.03;;
78453;SDS011;67750;55.832;49.124;2023-06-24T01:52:12;24.32;;;14.98;;
78453;SDS011;67750;55.832;49.124;2023-06-24T01:54:42;26.00;;;15.03;;
78453;SDS011;67750;55.832;49.124;2023-06-24T01:57:13;21.93;;;14.23;;
78453;SDS011;67750;55.832;49.124;2023-06-24T01:59:45;24.72;;;14.90;;
78453;SDS011;67750;55.832;49.124;2023-06-24T02:02:15;26.15;;;15.68;;
78453;SDS011;67750;55.832;49.124;2023-06-24T02:04:47;30.70;;;16.32;;
78453;SDS011;67750;55.832;49.124;2023-06-24T02:07:17;25.20;;;16.50;;
78453;SDS011;67750;55.832;49.124;2023-06-24T02:09:48;32.42;;;16.48;;
78453;SDS011;67750;55.832;49.124;2023-06-24T02:12:19;23.67;;;15.38;;
78453;SDS011;67750;55.832;49.124;2023-06-24T02:14:50;30.17;;;16.57;;
78453;SDS011;67750;55.832;49.124;2023-06-24T02:17:20;27.42;;;15.65;;
78453;SDS011;67750;55.832;49.124;2023-06-24T02:19:50;24.92;;;16.25;;
78453;SDS011;67750;55.832;49.124;2023-06-24T02:22:20;29.00;;;16.60;;
78453;SDS011;67750;55.832;49.124;2023-06-24T02:24:52;28.73;;;16.23;;
78453;SDS011;67750;55.832;49.124;2023-06-24T02:27:23;32.35;;;17.20;;
78453;SDS011;67750;55.832;49.124;2023-06-24T02:29:54;27.45;;;16.97;;
78453;SDS011;67750;55.832;49.124;2023-06-24T02:34:54;27.48;;;16.55;;
78453;SDS011;67750;55.832;49.124;2023-06-24T02:37:23;27.30;;;17.20;;
78453;SDS011;67750;55.832;49.124;2023-06-24T02:39:53;26.97;;;16.42;;
78453;SDS011;67750;55.832;49.124;2023-06-24T02:42:22;25.30;;;17.00;;
78453;SDS011;67750;55.832;49.124;2023-06-24T02:44:52;26.77;;;17.07;;
78453;SDS011;67750;55.832;49.124;2023-06-24T02:47:22;28.65;;;16.23;;
78453;SDS011;67750;55.832;49.124;2023-06-24T02:49:53;27.02;;;17.12;;
78453;SDS011;67750;55.832;49.124;2023-06-24T02:52:24;28.35;;;17.00;;
78453;SDS011;67750;55.832;49.124;2023-06-24T02:55:15;24.35;;;14.45;;
78453;SDS011;67750;55.832;49.124;2023-06-24T02:58:04;30.70;;;14.78;;
78453;SDS011;67750;55.832;49.124;2023-06-24T03:00:54;22.20;;;14.38;;
78453;SDS011;67750;55.832;49.124;2023-06-24T03:03:45;24.43;;;15.30;;
78453;SDS011;67750;55.832;49.124;2023-06-24T03:06:17;24.05;;;14.00;;
78453;SDS011;67750;55.832;49.124;2023-06-24T03:08:48;28.35;;;14.38;;
78453;SDS011;67750;55.832;49.124;2023-06-24T03:11:19;23.05;;;13.28;;
78453;SDS011;67750;55.832;49.124;2023-06-24T03:13:49;20.45;;;11.65;;
78453;SDS011;67750;55.832;49.124;2023-06-24T03:16:20;23.38;;;13.50;;
78453;SDS011;67750;55.832;49.124;2023-06-24T03:19:10;19.62;;;12.15;;
78453;SDS011;67750;55.832;49.124;2023-06-24T03:21:40;20.15;;;12.30;;
78453;SDS011;67750;55.832;49.124;2023-06-24T03:24:29;19.27;;;12.25;;
78453;SDS011;67750;55.832;49.124;2023-06-24T03:26:59;20.85;;;13.13;;
78453;SDS011;67750;55.832;49.124;2023-06-24T03:29:30;20.82;;;12.40;;
78453;SDS011;67750;55.832;49.124;2023-06-24T03:32:02;23.42;;;12.85;;
78453;SDS011;67750;55.832;49.124;2023-06-24T03:34:31;20.95;;;12.00;;
78453;SDS011;67750;55.832;49.124;2023-06-24T03:37:01;19.82;;;12.53;;
78453;SDS011;67750;55.832;49.124;2023-06-24T03:39:31;24.12;;;12.82;;
78453;SDS011;67750;55.832;49.124;2023-06-24T03:42:01;21.23;;;12.25;;
78453;SDS011;67750;55.832;49.124;2023-06-24T03:44:32;22.07;;;13.03;;
78453;SDS011;67750;55.832;49.124;2023-06-24T03:47:02;19.02;;;12.50;;
78453;SDS011;67750;55.832;49.124;2023-06-24T03:49:32;22.07;;;13.10;;
78453;SDS011;67750;55.832;49.124;2023-06-24T03:52:02;20.27;;;12.35;;
78453;SDS011;67750;55.832;49.124;2023-06-24T03:54:32;20.72;;;12.98;;
78453;SDS011;67750;55.832;49.124;2023-06-24T03:57:02;21.23;;;12.05;;
78453;SDS011;67750;55.832;49.124;2023-06-24T03:59:33;18.82;;;10.93;;
78453;SDS011;67750;55.832;49.124;2023-06-24T04:02:03;18.35;;;11.88;;
78453;SDS011;67750;55.832;49.124;2023-06-24T04:04:34;17.52;;;11.20;;
78453;SDS011;67750;55.832;49.124;2023-06-24T04:07:04;20.32;;;11.43;;
78453;SDS011;67750;55.832;49.124;2023-06-24T04:09:34;23.32;;;12.58;;
78453;SDS011;67750;55.832;49.124;2023-06-24T04:12:04;19.45;;;11.50;;
78453;SDS011;67750;55.832;49.124;2023-06-24T04:14:34;21.42;;;11.60;;
78453;SDS011;67750;55.832;49.124;2023-06-24T04:17:04;19.17;;;11.30;;
78453;SDS011;67750;55.832;49.124;2023-06-24T04:19:34;18.02;;;11.33;;
78453;SDS011;67750;55.832;49.124;2023-06-24T04:22:03;17.42;;;10.35;;
78453;SDS011;67750;55.832;49.124;2023-06-24T04:24:33;15.05;;;9.05;;
78453;SDS011;67750;55.832;49.124;2023-06-24T04:27:03;13.08;;;8.50;;
78453;SDS011;67750;55.832;49.124;2023-06-24T04:29:33;15.83;;;9.98;;
78453;SDS011;67750;55.832;49.124;2023-06-24T04:32:03;16.82;;;10.40;;
78453;SDS011;67750;55.832;49.124;2023-06-24T04:34:32;15.43;;;9.58;;
78453;SDS011;67750;55.832;49.124;2023-06-24T04:37:02;16.02;;;9.90;;
78453;SDS011;67750;55.832;49.124;2023-06-24T04:39:32;17.80;;;10.45;;
78453;SDS011;67750;55.832;49.124;2023-06-24T04:42:01;17.40;;;9.65;;
78453;SDS011;67750;55.832;49.124;2023-06-24T04:44:31;14.30;;;9.23;;
78453;SDS011;67750;55.832;49.124;2023-06-24T04:47:00;15.38;;;9.08;;
78453;SDS011;67750;55.832;49.124;2023-06-24T04:49:30;15.60;;;8.85;;
78453;SDS011;67750;55.832;49.124;2023-06-24T04:52:00;18.35;;;9.20;;
78453;SDS011;67750;55.832;49.124;2023-06-24T04:54:29;13.58;;;7.90;;
78453;SDS011;67750;55.832;49.124;2023-06-24T04:56:59;15.58;;;7.67;;
78453;SDS011;67750;55.832;49.124;2023-06-24T04:59:28;13.32;;;8.28;;
78453;SDS011;67750;55.832;49.124;2023-06-24T05:01:58;11.68;;;6.75;;
78453;SDS011;67750;55.832;49.124;2023-06-24T05:04:27;12.00;;;6.08;;
78453;SDS011;67750;55.832;49.124;2023-06-24T05:06:57;10.63;;;4.72;;
78453;SDS011;67750;55.832;49.124;2023-06-24T05:09:26;8.65;;;4.37;;
78453;SDS011;67750;55.832;49.124;2023-06-24T05:11:56;7.67;;;4.67;;
78453;SDS011;67750;55.832;49.124;2023-06-24T05:14:25;7.60;;;4.90;;
78453;SDS011;67750;55.832;49.124;2023-06-24T05:16:55;6.83;;;4.42;;
78453;SDS011;67750;55.832;49.124;2023-06-24T05:19:24;11.97;;;4.42;;
78453;SDS011;67750;55.832;49.124;2023-06-24T05:21:54;8.85;;;4.75;;
78453;SDS011;67750;55.832;49.124;2023-06-24T05:24:23;9.03;;;4.65;;
78453;SDS011;67750;55.832;49.124;2023-06-24T05:26:53;9.25;;;4.65;;
78453;SDS011;67750;55.832;49.124;2023-06-24T05:29:22;9.00;;;5.00;;
78453;SDS011;67750;55.832;49.124;2023-06-24T05:31:52;9.05;;;4.70;;
78453;SDS011;67750;55.832;49.124;2023-06-24T05:34:21;11.03;;;5.00;;
78453;SDS011;67750;55.832;49.124;2023-06-24T05:36:51;7.03;;;4.22;;
78453;SDS011;67750;55.832;49.124;2023-06-24T05:39:20;7.17;;;4.58;;
78453;SDS011;67750;55.832;49.124;2023-06-24T05:41:50;7.10;;;4.17;;
78453;SDS011;67750;55.832;49.124;2023-06-24T05:44:19;8.33;;;4.78;;
78453;SDS011;67750;55.832;49.124;2023-06-24T05:46:50;9.28;;;4.10;;
78453;SDS011;67750;55.832;49.124;2023-06-24T05:49:19;10.28;;;4.50;;
78453;SDS011;67750;55.832;49.124;2023-06-24T05:51:49;10.48;;;4.45;;
78453;SDS011;67750;55.832;49.124;2023-06-24T05:54:18;5.83;;;3.95;;
78453;SDS011;67750;55.832;49.124;2023-06-24T05:56:48;8.30;;;4.33;;
78453;SDS011;67750;55.832;49.124;2023-06-24T05:59:17;5.47;;;4.03;;
78453;SDS011;67750;55.832;49.124;2023-06-24T06:01:47;7.10;;;4.35;;
78453;SDS011;67750;55.832;49.124;2023-06-24T06:04:16;9.08;;;4.45;;
78453;SDS011;67750;55.832;49.124;2023-06-24T06:06:46;6.60;;;4.03;;
78453;SDS011;67750;55.832;49.124;2023-06-24T06:09:15;6.85;;;4.70;;
78453;SDS011;67750;55.832;49.124;2023-06-24T06:11:46;6.22;;;3.87;;
78453;SDS011;67750;55.832;49.124;2023-06-24T06:14:15;7.03;;;4.53;;
78453;SDS011;67750;55.832;49.124;2023-06-24T06:16:45;5.40;;;3.98;;
78453;SDS011;67750;55.832;49.124;2023-06-24T06:19:14;5.60;;;4.00;;
78453;SDS011;67750;55.832;49.124;2023-06-24T06:21:44;6.40;;;3.67;;
78453;SDS011;67750;55.832;49.124;2023-06-24T06:24:14;8.03;;;4.05;;
78453;SDS011;67750;55.832;49.124;2023-06-24T06:26:44;5.42;;;3.55;;
78453;SDS011;67750;55.832;49.124;2023-06-24T06:29:13;6.03;;;4.10;;
78453;SDS011;67750;55.832;49.124;2023-06-24T06:31:43;8.30;;;4.30;;
78453;SDS011;67750;55.832;49.124;2023-06-24T06:34:12;7.03;;;3.75;;
78453;SDS011;67750;55.832;49.124;2023-06-24T06:36:42;7.22;;;4.10;;
78453;SDS011;67750;55.832;49.124;2023-06-24T06:39:11;6.90;;;3.95;;
78453;SDS011;67750;55.832;49.124;2023-06-24T06:41:41;4.72;;;3.80;;
78453;SDS011;67750;55.832;49.124;2023-06-24T06:44:12;6.62;;;4.67;;
78453;SDS011;67750;55.832;49.124;2023-06-24T06:46:41;5.75;;;4.10;;
78453;SDS011;67750;55.832;49.124;2023-06-24T06:49:11;6.72;;;3.80;;
78453;SDS011;67750;55.832;49.124;2023-06-24T06:51:40;6.58;;;3.77;;
78453;SDS011;67750;55.832;49.124;2023-06-24T06:54:09;5.53;;;4.15;;
78453;SDS011;67750;55.832;49.124;2023-06-24T06:56:39;5.55;;;3.72;;
78453;SDS011;67750;55.832;49.124;2023-06-24T06:59:08;6.85;;;3.72;;
78453;SDS011;67750;55.832;49.124;2023-06-24T07:01:38;7.15;;;4.28;;
78453;SDS011;67750;55.832;49.124;2023-06-24T07:04:07;7.28;;;4.17;;
78453;SDS011;67750;55.832;49.124;2023-06-24T07:06:37;5.83;;;3.58;;
78453;SDS011;67750;55.832;49.124;2023-06-24T07:09:06;6.60;;;4.33;;
78453;SDS011;67750;55.832;49.124;2023-06-24T07:11:36;6.62;;;3.58;;
78453;SDS011;67750;55.832;49.124;2023-06-24T07:14:05;6.00;;;3.92;;
78453;SDS011;67750;55.832;49.124;2023-06-24T07:16:35;6.53;;;3.58;;
78453;SDS011;67750;55.832;49.124;2023-06-24T07:19:05;4.62;;;3.62;;
78453;SDS011;67750;55.832;49.124;2023-06-24T07:21:34;5.15;;;3.85;;
78453;SDS011;67750;55.832;49.124;2023-06-24T07:24:04;5.35;;;3.85;;
78453;SDS011;67750;55.832;49.124;2023-06-24T07:26:33;7.87;;;4.25;;
78453;SDS011;67750;55.832;49.124;2023-06-24T07:29:05;6.58;;;3.50;;
78453;SDS011;67750;55.832;49.124;2023-06-24T07:31:35;9.10;;;3.55;;
78453;SDS011;67750;55.832;49.124;2023-06-24T07:34:05;7.03;;;3.87;;
78453;SDS011;67750;55.832;49.124;2023-06-24T07:36:34;5.15;;;3.70;;
78453;SDS011;67750;55.832;49.124;2023-06-24T07:39:04;4.72;;;3.47;;
78453;SDS011;67750;55.832;49.124;2023-06-24T07:41:33;5.40;;;3.98;;
78453;SDS011;67750;55.832;49.124;2023-06-24T07:44:03;5.47;;;4.00;;
78453;SDS011;67750;55.832;49.124;2023-06-24T07:46:32;5.80;;;3.95;;
78453;SDS011;67750;55.832;49.124;2023-06-24T07:49:02;5.87;;;3.50;;
78453;SDS011;67750;55.832;49.124;2023-06-24T07:51:31;8.05;;;4.05;;
78453;SDS011;67750;55.832;49.124;2023-06-24T07:54:02;5.92;;;4.10;;
78453;SDS011;67750;55.832;49.124;2023-06-24T07:56:31;5.78;;;3.85;;
78453;SDS011;67750;55.832;49.124;2023-06-24T07:59:02;5.58;;;3.87;;
78453;SDS011;67750;55.832;49.124;2023-06-24T08:01:31;5.33;;;3.80;;
78453;SDS011;67750;55.832;49.124;2023-06-24T08:04:00;5.30;;;3.95;;
78453;SDS011;67750;55.832;49.124;2023-06-24T08:06:30;5.10;;;3.85;;
78453;SDS011;67750;55.832;49.124;2023-06-24T08:09:00;5.35;;;4.00;;
78453;SDS011;67750;55.832;49.124;2023-06-24T08:11:29;4.95;;;3.90;;
78453;SDS011;67750;55.832;49.124;2023-06-24T08:13:59;7.28;;;4.55;;
78453;SDS011;67750;55.832;49.124;2023-06-24T08:16:29;6.00;;;3.83;;
78453;SDS011;67750;55.832;49.124;2023-06-24T08:18:58;7.50;;;4.05;;
78453;SDS011;67750;55.832;49.124;2023-06-24T08:21:28;6.75;;;3.60;;
78453;SDS011;67750;55.832;49.124;2023-06-24T08:23:57;5.25;;;4.05;;
78453;SDS011;67750;55.832;49.124;2023-06-24T08:26:26;6.37;;;3.95;;
78453;SDS011;67750;55.832;49.124;2023-06-24T08:28:56;6.28;;;4.00;;
78453;SDS011;67750;55.832;49.124;2023-06-24T08:31:26;4.78;;;4.00;;
78453;SDS011;67750;55.832;49.124;2023-06-24T08:33:59;6.05;;;3.72;;
78453;SDS011;67750;55.832;49.124;2023-06-24T08:36:28;4.75;;;3.47;;
78453;SDS011;67750;55.832;49.124;2023-06-24T08:38:58;6.92;;;4.17;;
78453;SDS011;67750;55.832;49.124;2023-06-24T08:41:27;5.47;;;3.95;;
78453;SDS011;67750;55.832;49.124;2023-06-24T08:43:57;5.60;;;4.37;;
78453;SDS011;67750;55.832;49.124;2023-06-24T08:46:27;6.05;;;3.90;;
78453;SDS011;67750;55.832;49.124;2023-06-24T08:51:27;5.97;;;3.87;;
78453;SDS011;67750;55.832;49.124;2023-06-24T08:53:57;5.58;;;3.37;;
78453;SDS011;67750;55.832;49.124;2023-06-24T08:56:27;5.80;;;3.77;;
78453;SDS011;67750;55.832;49.124;2023-06-24T08:58:57;6.12;;;4.00;;
78453;SDS011;67750;55.832;49.124;2023-06-24T09:01:26;6.22;;;3.87;;
78453;SDS011;67750;55.832;49.124;2023-06-24T09:03:57;6.30;;;4.30;;
78453;SDS011;67750;55.832;49.124;2023-06-24T09:06:26;5.37;;;4.00;;
78453;SDS011;67750;55.832;49.124;2023-06-24T09:08:56;5.60;;;4.37;;
78453;SDS011;67750;55.832;49.124;2023-06-24T09:11:26;5.87;;;4.00;;
78453;SDS011;67750;55.832;49.124;2023-06-24T09:13:56;5.62;;;3.90;;
78453;SDS011;67750;55.832;49.124;2023-06-24T09:16:26;6.75;;;3.77;;
78453;SDS011;67750;55.832;49.124;2023-06-24T09:18:56;7.65;;;4.33;;
78453;SDS011;67750;55.832;49.124;2023-06-24T09:21:26;5.78;;;4.25;;
78453;SDS011;67750;55.832;49.124;2023-06-24T09:23:58;5.35;;;4.00;;
78453;SDS011;67750;55.832;49.124;2023-06-24T09:26:27;6.53;;;4.00;;
78453;SDS011;67750;55.832;49.124;2023-06-24T09:28:57;5.45;;;3.95;;
78453;SDS011;67750;55.832;49.124;2023-06-24T09:31:26;5.87;;;4.22;;
78453;SDS011;67750;55.832;49.124;2023-06-24T09:36:46;6.87;;;4.22;;
78453;SDS011;67750;55.832;49.124;2023-06-24T09:39:16;6.90;;;3.90;;
78453;SDS011;67750;55.832;49.124;2023-06-24T09:42:22;6.22;;;3.67;;
78453;SDS011;67750;55.832;49.124;2023-06-24T09:44:18;5.47;;;3.70;;
78453;SDS011;67750;55.832;49.124;2023-06-24T09:46:48;6.15;;;4.37;;
78453;SDS011;67750;55.832;49.124;2023-06-24T09:49:18;6.12;;;4.00;;
78453;SDS011;67750;55.832;49.124;2023-06-24T09:51:48;7.15;;;3.72;;
78453;SDS011;67750;55.832;49.124;2023-06-24T09:54:18;5.50;;;3.80;;
78453;SDS011;67750;55.832;49.124;2023-06-24T09:56:48;6.10;;;3.85;;
78453;SDS011;67750;55.832;49.124;2023-06-24T09:59:21;5.97;;;4.50;;
78453;SDS011;67750;55.832;49.124;2023-06-24T10:01:52;5.50;;;3.92;;
78453;SDS011;67750;55.832;49.124;2023-06-24T10:04:22;6.28;;;4.12;;
78453;SDS011;67750;55.832;49.124;2023-06-24T10:06:52;5.22;;;3.98;;
78453;SDS011;67750;55.832;49.124;2023-06-24T10:09:22;5.05;;;3.70;;
78453;SDS011;67750;55.832;49.124;2023-06-24T10:11:51;8.08;;;3.98;;
78453;SDS011;67750;55.832;49.124;2023-06-24T10:14:21;5.00;;;3.67;;
78453;SDS011;67750;55.832;49.124;2023-06-24T10:16:50;5.62;;;4.10;;
78453;SDS011;67750;55.832;49.124;2023-06-24T10:19:20;9.90;;;3.95;;
78453;SDS011;67750;55.832;49.124;2023-06-24T10:24:39;6.25;;;3.50;;
78453;SDS011;67750;55.832;49.124;2023-06-24T10:38:13;6.50;;;3.55;;
78453;SDS011;67750;55.832;49.124;2023-06-24T10:40:43;5.28;;;3.80;;
78453;SDS011;67750;55.832;49.124;2023-06-24T10:46:06;4.22;;;3.42;;
78453;SDS011;67750;55.832;49.124;2023-06-24T10:48:33;6.62;;;3.40;;
78453;SDS011;67750;55.832;49.124;2023-06-24T10:51:02;7.65;;;3.75;;
78453;SDS011;67750;55.832;49.124;2023-06-24T10:53:32;6.40;;;3.72;;
78453;SDS011;67750;55.832;49.124;2023-06-24T10:56:01;6.70;;;4.03;;
78453;SDS011;67750;55.832;49.124;2023-06-24T10:58:31;6.03;;;4.00;;
78453;SDS011;67750;55.832;49.124;2023-06-24T11:03:50;6.53;;;3.87;;
78453;SDS011;67750;55.832;49.124;2023-06-24T11:06:19;6.33;;;4.03;;
78453;SDS011;67750;55.832;49.124;2023-06-24T11:08:49;10.38;;;4.08;;
78453;SDS011;67750;55.832;49.124;2023-06-24T11:11:19;6.35;;;3.80;;
78453;SDS011;67750;55.832;49.124;2023-06-24T11:13:48;6.67;;;3.72;;
78453;SDS011;67750;55.832;49.124;2023-06-24T11:16:20;5.03;;;3.35;;
78453;SDS011;67750;55.832;49.124;2023-06-24T11:18:49;11.18;;;3.77;;
78453;SDS011;67750;55.832;49.124;2023-06-24T11:21:18;6.87;;;3.45;;
78453;SDS011;67750;55.832;49.124;2023-06-24T11:23:48;7.62;;;3.77;;
78453;SDS011;67750;55.832;49.124;2023-06-24T11:26:18;6.15;;;3.30;;
78453;SDS011;67750;55.832;49.124;2023-06-24T11:28:47;5.92;;;3.47;;
78453;SDS011;67750;55.832;49.124;2023-06-24T11:31:17;4.28;;;3.22;;
78453;SDS011;67750;55.832;49.124;2023-06-24T11:36:36;5.83;;;3.35;;
78453;SDS011;67750;55.832;49.124;2023-06-24T11:39:06;9.03;;;4.28;;
78453;SDS011;67750;55.832;49.124;2023-06-24T11:41:36;5.08;;;3.67;;
78453;SDS011;67750;55.832;49.124;2023-06-24T11:44:06;6.12;;;3.12;;
78453;SDS011;67750;55.832;49.124;2023-06-24T11:46:37;7.62;;;3.83;;
78453;SDS011;67750;55.832;49.124;2023-06-24T11:49:07;5.00;;;3.58;;
78453;SDS011;67750;55.832;49.124;2023-06-24T11:51:36;4.42;;;3.20;;
78453;SDS011;67750;55.832;49.124;2023-06-24T11:54:07;6.72;;;4.03;;
78453;SDS011;67750;55.832;49.124;2023-06-24T11:59:26;9.05;;;4.25;;
78453;SDS011;67750;55.832;49.124;2023-06-24T12:01:57;6.50;;;4.25;;
78453;SDS011;67750;55.832;49.124;2023-06-24T12:04:58;6.03;;;3.83;;
78453;SDS011;67750;55.832;49.124;2023-06-24T12:07:00;8.40;;;3.62;;
78453;SDS011;67750;55.832;49.124;2023-06-24T12:09:30;6.47;;;3.62;;
78453;SDS011;67750;55.832;49.124;2023-06-24T12:11:59;5.65;;;3.75;;
78453;SDS011;67750;55.832;49.124;2023-06-24T12:14:29;4.65;;;3.27;;
78453;SDS011;67750;55.832;49.124;2023-06-24T12:16:58;8.18;;;3.42;;
78453;SDS011;67750;55.832;49.124;2023-06-24T12:19:29;7.70;;;3.65;;
78453;SDS011;67750;55.832;49.124;2023-06-24T12:21:58;5.62;;;3.40;;
78453;SDS011;67750;55.832;49.124;2023-06-24T12:24:28;6.53;;;3.67;;
78453;SDS011;67750;55.832;49.124;2023-06-24T12:26:57;5.92;;;3.95;;
78453;SDS011;67750;55.832;49.124;2023-06-24T12:29:27;6.05;;;3.87;;
78453;SDS011;67750;55.832;49.124;2023-06-24T12:31:56;6.28;;;3.20;;
78453;SDS011;67750;55.832;49.124;2023-06-24T12:34:27;6.87;;;4.20;;
78453;SDS011;67750;55.832;49.124;2023-06-24T12:36:56;6.20;;;3.85;;
78453;SDS011;67750;55.832;49.124;2023-06-24T12:39:26;10.68;;;4.35;;
78453;SDS011;67750;55.832;49.124;2023-06-24T12:41:55;7.62;;;3.75;;
78453;SDS011;67750;55.832;49.124;2023-06-24T12:44:25;5.85;;;4.08;;
78453;SDS011;67750;55.832;49.124;2023-06-24T12:46:54;4.92;;;3.52;;
78453;SDS011;67750;55.832;49.124;2023-06-24T12:49:23;5.40;;;3.62;;
78453;SDS011;67750;55.832;49.124;2023-06-24T12:51:53;7.50;;;4.10;;
78453;SDS011;67750;55.832;49.124;2023-06-24T12:54:22;6.70;;;3.70;;
78453;SDS011;67750;55.832;49.124;2023-06-24T12:59:41;7.22;;;3.95;;
78453;SDS011;67750;55.832;49.124;2023-06-24T13:02:32;5.80;;;3.98;;
78453;SDS011;67750;55.832;49.124;2023-06-24T13:05:02;7.08;;;3.98;;
78453;SDS011;67750;55.832;49.124;2023-06-24T13:07:32;6.67;;;4.17;;
78453;SDS011;67750;55.832;49.124;2023-06-24T13:10:02;7.70;;;3.70;;
78453;SDS011;67750;55.832;49.124;2023-06-24T13:12:33;6.78;;;3.60;;
78453;SDS011;67750;55.832;49.124;2023-06-24T13:15:03;5.35;;;3.22;;
78453;SDS011;67750;55.832;49.124;2023-06-24T13:17:36;5.62;;;3.67;;
78453;SDS011;67750;55.832;49.124;2023-06-24T13:20:06;6.65;;;3.92;;
78453;SDS011;67750;55.832;49.124;2023-06-24T13:22:36;5.72;;;3.77;;
78453;SDS011;67750;55.832;49.124;2023-06-24T13:25:06;6.67;;;3.90;;
78453;SDS011;67750;55.832;49.124;2023-06-24T13:27:35;5.28;;;3.50;;
78453;SDS011;67750;55.832;49.124;2023-06-24T13:30:05;6.83;;;3.83;;
78453;SDS011;67750;55.832;49.124;2023-06-24T13:32:36;8.55;;;3.47;;
78453;SDS011;67750;55.832;49.124;2023-06-24T13:35:05;5.65;;;3.60;;
78453;SDS011;67750;55.832;49.124;2023-06-24T13:37:35;5.65;;;3.70;;
78453;SDS011;67750;55.832;49.124;2023-06-24T13:40:06;5.37;;;3.65;;
78453;SDS011;67750;55.832;49.124;2023-06-24T13:42:35;6.03;;;3.30;;
78453;SDS011;67750;55.832;49.124;2023-06-24T13:45:05;6.78;;;3.67;;
78453;SDS011;67750;55.832;49.124;2023-06-24T13:47:35;6.22;;;3.60;;
78453;SDS011;67750;55.832;49.124;2023-06-24T13:50:05;4.97;;;3.90;;
78453;SDS011;67750;55.832;49.124;2023-06-24T13:52:35;6.37;;;4.15;;
78453;SDS011;67750;55.832;49.124;2023-06-24T13:55:05;5.42;;;3.90;;
78453;SDS011;67750;55.832;49.124;2023-06-24T13:57:34;8.33;;;4.00;;
78453;SDS011;67750;55.832;49.124;2023-06-24T14:00:04;6.60;;;3.95;;
78453;SDS011;67750;55.832;49.124;2023-06-24T14:02:37;6.92;;;3.90;;
78453;SDS011;67750;55.832;49.124;2023-06-24T14:05:08;6.20;;;4.00;;
78453;SDS011;67750;55.832;49.124;2023-06-24T14:07:37;4.78;;;3.42;;
78453;SDS011;67750;55.832;49.124;2023-06-24T14:10:07;8.60;;;4.15;;
78453;SDS011;67750;55.832;49.124;2023-06-24T14:12:36;7.30;;;3.92;;
78453;SDS011;67750;55.832;49.124;2023-06-24T14:15:08;7.17;;;3.80;;
78453;SDS011;67750;55.832;49.124;2023-06-24T14:17:37;5.05;;;3.65;;
78453;SDS011;67750;55.832;49.124;2023-06-24T14:20:07;7.03;;;3.75;;
78453;SDS011;67750;55.832;49.124;2023-06-24T14:22:37;9.55;;;4.00;;
78453;SDS011;67750;55.832;49.124;2023-06-24T14:25:07;6.25;;;3.80;;
78453;SDS011;67750;55.832;49.124;2023-06-24T14:27:37;7.30;;;4.37;;
78453;SDS011;67750;55.832;49.124;2023-06-24T14:30:07;5.95;;;4.00;;
78453;SDS011;67750;55.832;49.124;2023-06-24T14:32:37;4.70;;;3.27;;
78453;SDS011;67750;55.832;49.124;2023-06-24T14:35:07;6.65;;;4.00;;
78453;SDS011;67750;55.832;49.124;2023-06-24T14:37:37;7.70;;;4.15;;
78453;SDS011;67750;55.832;49.124;2023-06-24T14:40:08;8.33;;;3.58;;
78453;SDS011;67750;55.832;49.124;2023-06-24T14:42:38;8.30;;;3.47;;
78453;SDS011;67750;55.832;49.124;2023-06-24T14:45:08;7.03;;;3.72;;
78453;SDS011;67750;55.832;49.124;2023-06-24T14:47:37;6.50;;;4.10;;
78453;SDS011;67750;55.832;49.124;2023-06-24T14:50:07;8.63;;;4.37;;
78453;SDS011;67750;55.832;49.124;2023-06-24T14:52:36;10.55;;;5.33;;
78453;SDS011;67750;55.832;49.124;2023-06-24T14:55:06;8.05;;;4.42;;
78453;SDS011;67750;55.832;49.124;2023-06-24T14:57:36;11.60;;;5.17;;
78453;SDS011;67750;55.832;49.124;2023-06-24T15:00:06;9.50;;;6.22;;
78453;SDS011;67750;55.832;49.124;2023-06-24T15:02:36;11.50;;;6.05;;
78453;SDS011;67750;55.832;49.124;2023-06-24T15:05:06;7.97;;;5.22;;
78453;SDS011;67750;55.832;49.124;2023-06-24T15:07:35;10.90;;;5.75;;
78453;SDS011;67750;55.832;49.124;2023-06-24T15:10:05;9.88;;;5.90;;
78453;SDS011;67750;55.832;49.124;2023-06-24T15:12:35;9.78;;;5.25;;
78453;SDS011;67750;55.832;49.124;2023-06-24T15:15:06;10.58;;;6.10;;
78453;SDS011;67750;55.832;49.124;2023-06-24T15:17:36;9.58;;;4.10;;
78453;SDS011;67750;55.832;49.124;2023-06-24T15:20:25;10.70;;;3.87;;
78453;SDS011;67750;55.832;49.124;2023-06-24T15:22:55;7.33;;;3.33;;
78453;SDS011;67750;55.832;49.124;2023-06-24T15:25:24;5.08;;;3.20;;
78453;SDS011;67750;55.832;49.124;2023-06-24T15:27:54;4.80;;;2.98;;
78453;SDS011;67750;55.832;49.124;2023-06-24T15:30:24;7.62;;;3.00;;
78453;SDS011;67750;55.832;49.124;2023-06-24T15:32:54;5.05;;;3.00;;
78453;SDS011;67750;55.832;49.124;2023-06-24T15:35:24;4.40;;;2.67;;
78453;SDS011;67750;55.832;49.124;2023-06-24T15:37:53;4.65;;;2.87;;
78453;SDS011;67750;55.832;49.124;2023-06-24T15:40:23;4.47;;;2.55;;
78453;SDS011;67750;55.832;49.124;2023-06-24T15:42:52;5.37;;;3.22;;
78453;SDS011;67750;55.832;49.124;2023-06-24T15:45:22;4.20;;;2.77;;